Terminal Aerodrome Forecast
Issued by NWS Shreveport, LA

Home | Current Version | Previous Version | Text Only | Print | Product List | Glossary On
Versions: 1 2 3 4 5 6 7 8 9 10 11 12 13 14 15
789
FTUS44 KSHV 141722
TAFMLU
TAF
KMLU 141722Z 1418/1518 17012KT P6SM BKN045 BKN070
     FM150000 17006KT P6SM BKN050
      TEMPO 1503/1506 OVC010
     FM150600 17007KT P6SM VCSH OVC008
     FM151500 18010KT P6SM VCTS OVC010CB=

USA.gov is the U.S. government's official web portal to all federal, state and local government web resources and services.